Offerle, Kansas
Current Conditions -  °F | °C
As of 11:05 PM on Friday 21 Nov 2014 (Local Time) from KDDC Reporting Station
Moderate Fog Moderate Fog  
Wind Chill: 29°   Ceiling: 200
Heat Index: 37°   Visibility: 0.25mi
Dew Point: 35°   Wind: 13mph
Humidity: 93%   Direction: 210°SSW
Pressure: 29.99"   Gusts: NA
Location:  37.89°N, 99.56°W
Report Text: KDDC 220505Z AUTO 21011KT 1/4SM FG VV002 03/02 A2999 RMK AO2 T00280017
Loading
Personal Weather Stations






























Interactive Weather Map New forecast layout! Learn more

10-Day Weather Forecast

Advertisements
Track Severe Weather on mobile